Time;durP1;ratioP1;P1;durP2;ratioP2;P2;SDS_P1;SDS_P2;PMS_P1;PMS_P2;Temp;Humidity;BMP_temperature;BMP_pressure;BME280_temperature;BME280_humidity;BME280_pressure;Samples;Min_cycle;Max_cycle;Signal;HPM_P1;HPM_P2
2022/04/26 03:37:29;;;;;;;7.10;5.80;;;8.10;99.90;;;;;;4982731;28;20435;-59
2022/04/26 03:39:55;;;;;;;6.73;5.67;;;8.10;99.90;;;;;;4986434;28;20436;-59
2022/04/26 03:42:21;;;;;;;5.00;4.50;;;8.10;99.90;;;;;;4994145;28;21042;-60
2022/04/26 03:44:47;;;;;;;4.73;4.17;;;8.10;99.90;;;;;;4981403;28;20468;-58
2022/04/26 03:47:13;;;;;;;4.30;3.90;;;8.10;99.90;;;;;;4986275;28;20427;-58
2022/04/26 03:49:38;;;;;;;5.40;4.13;;;8.10;99.90;;;;;;4985894;28;20580;-58
2022/04/26 03:52:05;;;;;;;4.40;4.00;;;8.10;99.90;;;;;;4989630;28;20640;-59
2022/04/26 03:54:31;;;;;;;4.63;4.23;;;8.10;99.90;;;;;;4963496;28;20186;-53
2022/04/26 03:56:58;;;;;;;5.70;4.53;;;8.10;99.90;;;;;;4977177;28;21558;-52
2022/04/26 03:59:23;;;;;;;6.43;5.07;;;8.10;99.90;;;;;;4978621;28;20563;-52
2022/04/26 04:01:49;;;;;;;5.30;4.40;;;8.10;99.90;;;;;;4972104;28;20972;-59
2022/04/26 04:04:15;;;;;;;4.93;4.43;;;8.10;99.90;;;;;;4964908;28;20178;-59
2022/04/26 04:06:41;;;;;;;6.53;5.03;;;8.20;99.90;;;;;;4976808;28;20273;-60
2022/04/26 04:09:07;;;;;;;6.03;4.17;;;8.10;99.90;;;;;;4962845;28;21254;-60
2022/04/26 04:11:32;;;;;;;6.20;5.17;;;8.10;99.90;;;;;;4958295;28;20471;-59
2022/04/26 04:13:58;;;;;;;5.07;4.10;;;8.10;99.90;;;;;;4971032;28;20170;-60
2022/04/26 04:16:24;;;;;;;7.17;5.00;;;8.10;99.90;;;;;;4971578;28;20182;-59
2022/04/26 04:21:34;;;;;;;6.17;5.00;;;8.10;99.90;;;;;;4975106;28;20684;-59
2022/04/26 04:23:59;;;;;;;6.00;4.83;;;8.10;99.90;;;;;;4979002;28;20428;-53
2022/04/26 04:26:25;;;;;;;6.43;4.90;;;8.10;99.90;;;;;;4975169;28;20261;-60
2022/04/26 04:28:51;;;;;;;5.93;5.00;;;8.10;99.90;;;;;;4978443;28;20707;-60
2022/04/26 04:31:17;;;;;;;5.60;5.10;;;8.10;99.90;;;;;;4971385;28;20621;-60
2022/04/26 04:33:45;;;;;;;5.70;5.13;;;8.00;99.90;;;;;;4975787;28;20277;-60
2022/04/26 04:36:11;;;;;;;7.60;5.33;;;8.00;99.90;;;;;;4975185;28;20225;-60
2022/04/26 04:38:37;;;;;;;5.80;5.07;;;8.00;99.90;;;;;;4984167;28;20447;-60
2022/04/26 04:41:04;;;;;;;6.10;4.90;;;8.00;99.90;;;;;;4978548;28;20974;-60
2022/04/26 04:43:30;;;;;;;5.57;4.97;;;7.90;99.90;;;;;;4982809;28;20205;-60
2022/04/26 04:45:56;;;;;;;8.10;6.90;;;7.90;99.90;;;;;;4976907;28;20452;-57
2022/04/26 04:48:22;;;;;;;7.63;5.90;;;7.90;99.90;;;;;;4977804;28;20291;-61
2022/04/26 04:50:48;;;;;;;9.20;7.30;;;7.90;99.90;;;;;;4973631;28;20200;-55
2022/04/26 04:53:13;;;;;;;13.60;7.93;;;7.90;99.90;;;;;;4978107;28;20488;-54
2022/04/26 04:55:40;;;;;;;9.23;7.27;;;7.90;99.90;;;;;;4981785;28;20177;-57
2022/04/26 04:58:06;;;;;;;8.00;6.07;;;7.90;99.90;;;;;;4978701;28;20189;-54
2022/04/26 05:00:31;;;;;;;6.83;5.63;;;7.90;99.90;;;;;;4961506;28;20439;-59
2022/04/26 05:02:58;;;;;;;11.03;6.80;;;7.90;99.90;;;;;;4978385;28;20468;-57
2022/04/26 05:05:24;;;;;;;8.47;7.13;;;7.90;99.90;;;;;;4983239;28;20570;-58
2022/04/26 05:07:50;;;;;;;8.57;6.10;;;7.90;99.90;;;;;;4989784;28;20443;-59
2022/04/26 05:10:16;;;;;;;10.13;5.50;;;7.90;99.90;;;;;;4987750;28;20527;-58
2022/04/26 05:12:41;;;;;;;8.93;5.63;;;7.90;99.90;;;;;;4985861;28;20452;-58
2022/04/26 05:15:07;;;;;;;8.23;5.30;;;7.90;99.90;;;;;;4981091;28;20183;-57
2022/04/26 05:17:33;;;;;;;8.43;5.90;;;7.90;99.90;;;;;;4989111;28;20269;-58
2022/04/26 05:19:59;;;;;;;7.73;6.13;;;7.80;99.90;;;;;;4985004;28;20515;-57
2022/04/26 05:22:24;;;;;;;7.70;6.90;;;7.80;99.90;;;;;;4992365;28;20185;-59
2022/04/26 05:24:53;;;;;;;11.77;7.80;;;7.90;99.90;;;;;;4979033;28;20269;-58
2022/04/26 05:27:26;;;;;;;12.30;9.50;;;7.90;99.90;;;;;;4991614;28;20199;-58
2022/04/26 05:29:52;;;;;;;9.03;7.37;;;7.90;99.90;;;;;;4984330;28;20436;-58
2022/04/26 05:32:22;;;;;;;8.73;6.67;;;7.90;99.90;;;;;;5025832;23;20602;-59
2022/04/26 05:34:56;;;;;;;7.53;5.33;;;7.80;99.90;;;;;;5046220;28;20453;-59
2022/04/26 05:37:21;;;;;;;7.07;5.23;;;7.80;99.90;;;;;;5047798;28;20422;-60
2022/04/26 05:39:47;;;;;;;5.93;5.23;;;7.80;99.90;;;;;;5046679;28;20950;-59
2022/04/26 05:42:12;;;;;;;8.40;5.80;;;7.80;99.90;;;;;;5045620;28;20194;-60
2022/04/26 05:44:38;;;;;;;11.37;6.40;;;7.80;99.90;;;;;;5031519;28;20188;-60
2022/04/26 05:47:07;;;;;;;9.40;6.23;;;7.80;99.90;;;;;;5024226;28;20211;-60
2022/04/26 05:49:34;;;;;;;12.70;6.90;;;7.80;99.90;;;;;;5024037;28;20460;-60
2022/04/26 05:52:00;;;;;;;10.83;7.57;;;7.70;99.90;;;;;;5009511;28;20462;-62
2022/04/26 05:54:26;;;;;;;9.00;7.20;;;7.80;99.90;;;;;;5022161;28;20434;-59
2022/04/26 05:56:54;;;;;;;10.23;7.43;;;7.80;99.90;;;;;;5025761;28;20436;-59
2022/04/26 05:59:21;;;;;;;12.10;8.57;;;7.80;99.90;;;;;;5028484;28;20213;-59
2022/04/26 06:01:47;;;;;;;11.30;7.97;;;7.80;99.90;;;;;;5027810;28;20446;-60
2022/04/26 06:04:14;;;;;;;8.50;6.87;;;7.80;99.90;;;;;;5026142;28;20506;-58
2022/04/26 06:06:39;;;;;;;9.80;7.03;;;7.80;99.90;;;;;;5021527;28;20812;-58
2022/04/26 06:09:05;;;;;;;8.97;6.93;;;7.80;99.90;;;;;;5027133;28;20437;-61
2022/04/26 06:11:32;;;;;;;9.67;6.20;;;7.80;99.90;;;;;;5025876;28;20223;-59
2022/04/26 06:13:58;;;;;;;14.83;6.50;;;7.90;99.90;;;;;;5013535;28;20562;-59
2022/04/26 06:16:23;;;;;;;8.97;6.13;;;7.90;99.90;;;;;;5024519;28;20457;-60
2022/04/26 06:18:49;;;;;;;9.30;6.47;;;7.90;99.90;;;;;;5027080;28;21137;-59
2022/04/26 06:21:15;;;;;;;9.27;6.77;;;7.90;99.90;;;;;;5022617;28;20176;-60
2022/04/26 06:23:41;;;;;;;7.53;5.87;;;7.90;99.90;;;;;;5028418;28;20580;-61
2022/04/26 06:26:07;;;;;;;8.20;6.43;;;7.90;99.90;;;;;;5027126;28;20183;-61
2022/04/26 06:28:33;;;;;;;8.23;6.40;;;7.90;99.90;;;;;;5027517;28;20496;-59
2022/04/26 06:31:00;;;;;;;9.37;6.40;;;7.90;99.90;;;;;;5026322;28;20520;-59
2022/04/26 06:33:25;;;;;;;9.20;7.03;;;8.00;99.90;;;;;;5028278;28;20638;-60
2022/04/26 06:35:51;;;;;;;10.23;6.90;;;8.00;99.90;;;;;;5025542;28;20426;-58
2022/04/26 06:38:17;;;;;;;10.60;6.60;;;7.90;99.90;;;;;;5026926;28;20163;-60
2022/04/26 06:40:45;;;;;;;7.87;6.33;;;8.00;99.90;;;;;;5008244;28;20180;-60
2022/04/26 06:43:11;;;;;;;8.57;6.47;;;8.00;99.90;;;;;;5028293;28;20542;-59
2022/04/26 06:45:37;;;;;;;9.77;6.83;;;7.90;99.90;;;;;;5007580;28;20430;-59
2022/04/26 06:48:10;;;;;;;8.50;6.67;;;7.90;99.90;;;;;;5023810;28;20458;-61
2022/04/26 06:50:37;;;;;;;8.27;6.60;;;7.90;99.90;;;;;;5027343;28;20462;-61
2022/04/26 06:53:04;;;;;;;8.13;6.43;;;7.90;99.90;;;;;;5028380;28;20431;-60
2022/04/26 06:55:30;;;;;;;8.93;6.27;;;7.90;99.90;;;;;;5025888;28;20439;-59
2022/04/26 06:57:55;;;;;;;8.87;6.53;;;7.90;99.90;;;;;;5026609;28;20481;-59
2022/04/26 07:00:21;;;;;;;10.73;7.00;;;7.90;99.90;;;;;;5026494;28;20171;-60
2022/04/26 07:02:47;;;;;;;8.93;6.13;;;7.90;99.90;;;;;;5027861;28;20199;-59
2022/04/26 07:05:15;;;;;;;8.27;6.13;;;7.90;99.90;;;;;;5021246;28;20492;-58
2022/04/26 07:07:41;;;;;;;10.73;7.37;;;7.90;99.90;;;;;;5026130;28;20532;-59
2022/04/26 07:10:09;;;;;;;10.07;7.13;;;7.90;99.90;;;;;;5024666;28;20437;-59
2022/04/26 07:12:35;;;;;;;8.17;6.63;;;7.90;99.90;;;;;;5026494;28;20426;-60
2022/04/26 07:15:02;;;;;;;9.67;6.70;;;7.90;99.90;;;;;;5026565;28;20927;-59
2022/04/26 07:17:28;;;;;;;10.53;7.47;;;8.00;99.90;;;;;;5048373;28;20397;-59
2022/04/26 07:19:54;;;;;;;9.97;7.40;;;8.00;99.90;;;;;;5031823;28;20427;-58
2022/04/26 07:22:19;;;;;;;10.60;7.53;;;7.90;99.90;;;;;;5006623;28;20193;-59
2022/04/26 07:24:45;;;;;;;12.77;9.40;;;7.90;99.90;;;;;;5021992;28;20180;-60
2022/04/26 07:27:11;;;;;;;15.10;8.17;;;7.90;99.90;;;;;;5022002;28;20183;-59
2022/04/26 07:29:41;;;;;;;11.93;7.27;;;7.90;99.90;;;;;;5026867;28;20219;-61
2022/04/26 07:32:07;;;;;;;10.23;7.53;;;7.90;99.90;;;;;;5025325;28;20462;-60
2022/04/26 07:34:33;;;;;;;10.37;7.03;;;7.90;99.90;;;;;;5025183;28;20430;-60
2022/04/26 07:37:01;;;;;;;11.00;7.17;;;7.90;99.90;;;;;;5027514;28;20564;-59
2022/04/26 07:39:27;;;;;;;10.80;7.67;;;7.80;99.90;;;;;;5026229;28;20727;-60
2022/04/26 07:41:53;;;;;;;10.43;7.30;;;7.80;99.90;;;;;;5008857;28;20569;-60
2022/04/26 07:44:19;;;;;;;11.93;7.17;;;7.80;99.90;;;;;;5003288;28;20184;-60
2022/04/26 07:46:47;;;;;;;10.37;7.13;;;7.80;99.90;;;;;;5026529;28;20578;-61
2022/04/26 07:49:14;;;;;;;11.83;6.93;;;7.80;99.90;;;;;;5028158;28;20943;-60
2022/04/26 07:51:42;;;;;;;10.60;7.87;;;7.80;99.90;;;;;;5020463;28;20449;-60
2022/04/26 07:54:09;;;;;;;8.27;6.43;;;7.90;99.90;;;;;;5039095;28;20450;-60
2022/04/26 07:56:35;;;;;;;11.00;7.13;;;7.90;99.90;;;;;;5026301;28;20546;-59
2022/04/26 07:59:03;;;;;;;10.10;7.43;;;7.90;99.90;;;;;;5010558;28;20958;-60
2022/04/26 08:01:30;;;;;;;12.97;8.30;;;7.90;99.90;;;;;;5013788;28;20434;-59
2022/04/26 08:03:57;;;;;;;18.70;9.63;;;7.90;99.90;;;;;;5021765;28;20498;-59
2022/04/26 08:06:23;;;;;;;12.23;8.40;;;8.00;99.90;;;;;;5030451;28;20423;-61
2022/04/26 08:08:48;;;;;;;11.83;8.80;;;8.00;99.90;;;;;;5019682;28;20496;-59
2022/04/26 08:11:14;;;;;;;10.50;8.00;;;8.10;99.90;;;;;;5023783;28;20191;-58
2022/04/26 08:13:40;;;;;;;11.43;7.77;;;8.00;99.90;;;;;;5026342;28;20211;-58
2022/04/26 08:16:06;;;;;;;11.07;7.70;;;8.00;99.90;;;;;;5030786;28;20749;-59
2022/04/26 08:18:33;;;;;;;10.87;7.90;;;8.00;99.90;;;;;;5026557;28;20501;-60
2022/04/26 08:20:59;;;;;;;10.10;7.17;;;8.00;99.90;;;;;;5012269;28;20567;-58
2022/04/26 08:23:24;;;;;;;7.37;6.00;;;8.10;99.90;;;;;;5029501;28;20446;-58
2022/04/26 08:28:34;;;;;;;11.40;7.47;;;8.00;99.90;;;;;;5020105;28;20262;-59
2022/04/26 08:31:00;;;;;;;8.83;7.37;;;8.00;99.90;;;;;;5031402;28;20454;-59
2022/04/26 08:33:30;;;;;;;12.63;8.00;;;8.00;99.90;;;;;;5028778;28;20211;-58
2022/04/26 08:35:56;;;;;;;9.30;7.10;;;8.10;99.90;;;;;;5028417;28;20259;-60
2022/04/26 08:38:22;;;;;;;10.80;7.90;;;8.10;99.90;;;;;;5027302;28;20517;-59
2022/04/26 08:40:48;;;;;;;9.13;6.50;;;8.20;99.90;;;;;;5030480;28;20477;-59
2022/04/26 08:43:14;;;;;;;11.93;7.67;;;8.30;99.90;;;;;;5009338;28;20458;-59
2022/04/26 08:45:40;;;;;;;11.50;7.23;;;8.30;99.90;;;;;;5025301;28;20431;-59
2022/04/26 08:51:04;;;;;;;11.27;7.50;;;8.40;99.90;;;;;;5016294;28;20532;-59
2022/04/26 08:53:35;;;;;;;10.10;7.80;;;8.40;99.90;;;;;;5020339;28;21216;-59
2022/04/26 08:56:06;;;;;;;23.10;10.93;;;8.50;99.90;;;;;;5029548;28;20433;-59
2022/04/26 08:58:33;;;;;;;12.70;8.03;;;8.60;99.90;;;;;;5031737;28;20436;-59
2022/04/26 09:01:22;;;;;;;11.10;7.30;;;8.90;99.90;;;;;;5027781;28;20431;-59
2022/04/26 09:03:54;;;;;;;10.30;7.43;;;9.20;99.90;;;;;;5029209;28;20450;-58
2022/04/26 09:06:21;;;;;;;9.80;6.90;;;9.50;99.90;;;;;;5027584;28;20406;-59
2022/04/26 09:08:48;;;;;;;12.30;7.70;;;9.70;99.90;;;;;;5024787;28;20423;-60
2022/04/26 09:11:22;;;;;;;9.30;7.37;;;9.90;99.90;;;;;;5020076;28;20454;-60
2022/04/26 09:13:48;;;;;;;8.70;6.83;;;10.00;99.90;;;;;;5028706;28;20470;-58
2022/04/26 09:16:19;;;;;;;7.77;6.27;;;10.00;99.90;;;;;;5028442;28;20488;-59
2022/04/26 09:19:14;;;;;;;8.70;6.30;;;10.10;99.90;;;;;;5027821;28;20453;-58
2022/04/26 09:21:54;;;;;;;8.63;6.63;;;10.30;99.90;;;;;;5015614;28;20446;-59
2022/04/26 09:24:20;;;;;;;7.93;6.77;;;10.30;99.90;;;;;;5027871;28;20426;-58
2022/04/26 09:26:45;;;;;;;7.43;6.20;;;10.40;99.90;;;;;;5023393;28;20973;-59
2022/04/26 09:29:18;;;;;;;9.43;6.33;;;10.50;99.90;;;;;;5028798;28;20275;-58
2022/04/26 09:31:44;;;;;;;11.30;6.40;;;10.50;99.90;;;;;;5011918;28;20203;-58
2022/04/26 09:34:14;;;;;;;7.90;6.13;;;10.50;99.90;;;;;;5023863;28;20839;-58
2022/04/26 09:36:50;;;;;;;10.47;5.80;;;10.50;99.90;;;;;;5026656;28;20179;-58
2022/04/26 09:39:18;;;;;;;8.70;6.77;;;10.40;99.90;;;;;;5028045;28;20883;-58
2022/04/26 09:41:49;;;;;;;8.63;6.37;;;10.40;99.90;;;;;;5026928;28;20532;-59
2022/04/26 09:44:14;;;;;;;9.13;5.90;;;10.40;99.90;;;;;;5025755;28;20463;-59
2022/04/26 09:46:40;;;;;;;6.50;5.50;;;10.30;99.90;;;;;;5021715;28;20926;-58
2022/04/26 09:49:10;;;;;;;9.47;6.47;;;10.40;99.90;;;;;;5015337;28;20215;-58
2022/04/26 09:51:39;;;;;;;8.30;5.83;;;10.40;99.90;;;;;;5017284;28;20215;-59
2022/04/26 09:54:06;;;;;;;11.33;6.30;;;10.40;99.90;;;;;;5027008;28;20955;-59
2022/04/26 09:56:32;;;;;;;10.63;6.80;;;10.40;99.90;;;;;;5026881;28;20430;-60
2022/04/26 09:59:00;;;;;;;10.40;5.97;;;10.30;99.90;;;;;;5027144;28;20410;-59
2022/04/26 10:01:47;;;;;;;10.50;5.97;;;10.20;99.90;;;;;;5016008;28;20435;-59
2022/04/26 10:04:17;;;;;;;9.33;5.40;;;10.10;99.90;;;;;;5027943;28;20469;-59
2022/04/26 10:06:46;;;;;;;10.60;6.30;;;10.10;99.90;;;;;;5028466;28;20469;-59
2022/04/26 10:09:13;;;;;;;9.60;5.70;;;10.10;99.90;;;;;;5026325;28;20442;-59
2022/04/26 10:11:39;;;;;;;7.90;6.03;;;10.30;99.90;;;;;;5027509;28;20458;-58
2022/04/26 10:14:07;;;;;;;12.67;5.50;;;10.50;99.90;;;;;;5027688;28;20426;-59
2022/04/26 10:16:33;;;;;;;7.90;5.40;;;10.80;99.80;;;;;;5019192;28;20537;-60
2022/04/26 10:19:07;;;;;;;19.60;6.33;;;11.10;99.90;;;;;;5022225;28;20515;-60
2022/04/26 10:21:38;;;;;;;8.63;6.70;;;11.50;99.90;;;;;;5021081;28;20431;-61
2022/04/26 10:24:22;;;;;;;11.47;6.10;;;11.80;99.90;;;;;;5022332;28;20457;-63
2022/04/26 10:26:49;;;;;;;10.37;6.17;;;11.90;99.90;;;;;;5019230;28;20438;-61
2022/04/26 10:29:15;;;;;;;12.57;6.60;;;12.10;99.90;;;;;;5010812;28;20435;-61
2022/04/26 10:32:01;;;;;;;7.67;5.70;;;12.00;99.70;;;;;;5023442;28;20465;-62
2022/04/26 10:34:29;;;;;;;6.50;5.47;;;11.90;99.90;;;;;;5020605;28;20207;-61
2022/04/26 10:37:07;;;;;;;6.93;5.97;;;11.60;99.90;;;;;;5023106;28;20439;-63
2022/04/26 10:39:33;;;;;;;8.80;5.80;;;11.30;99.90;;;;;;5019478;28;20455;-62
2022/04/26 10:42:01;;;;;;;10.27;7.30;;;11.00;99.90;;;;;;5007268;28;20441;-63
2022/04/26 10:44:31;;;;;;;7.80;6.70;;;10.80;99.90;;;;;;5020354;28;20207;-63
2022/04/26 10:47:02;;;;;;;7.33;6.53;;;10.60;99.90;;;;;;5024612;28;20817;-62
2022/04/26 10:49:40;;;;;;;8.83;7.07;;;10.40;99.90;;;;;;5019751;28;20806;-63
2022/04/26 10:52:14;;;;;;;11.40;6.73;;;10.30;99.90;;;;;;5026765;28;20486;-61
2022/04/26 10:54:48;;;;;;;11.07;7.93;;;10.20;99.90;;;;;;5022721;28;21293;-64
2022/04/26 10:57:15;;;;;;;10.87;7.00;;;10.20;99.90;;;;;;4999665;28;20450;-64
2022/04/26 10:59:45;;;;;;;10.80;7.33;;;10.30;99.90;;;;;;5023482;28;20481;-63
2022/04/26 11:02:17;;;;;;;9.90;7.57;;;10.40;99.90;;;;;;5022496;28;21127;-62
2022/04/26 11:04:43;;;;;;;11.27;7.20;;;10.50;99.90;;;;;;5006950;28;20438;-63
2022/04/26 11:07:13;;;;;;;12.30;7.43;;;10.50;99.90;;;;;;5023732;28;20513;-63
2022/04/26 11:09:49;;;;;;;8.70;7.20;;;10.50;99.90;;;;;;5022088;28;20438;-62
2022/04/26 11:12:25;;;;;;;11.50;7.47;;;10.50;99.90;;;;;;5020869;28;20548;-63
2022/04/26 11:14:57;;;;;;;25.23;7.50;;;10.40;99.90;;;;;;5022547;28;20465;-63
2022/04/26 11:17:24;;;;;;;9.50;7.43;;;10.30;99.90;;;;;;5025542;28;20577;-62
2022/04/26 11:20:02;;;;;;;13.13;7.63;;;10.10;99.90;;;;;;5020623;28;20442;-61
2022/04/26 11:22:29;;;;;;;10.10;7.10;;;10.10;99.90;;;;;;5023548;28;20538;-61
2022/04/26 11:28:05;;;;;;;9.37;7.23;;;10.00;99.90;;;;;;5017323;28;20504;-63
2022/04/26 11:30:45;;;;;;;9.40;7.10;;;9.90;99.90;;;;;;5023959;28;20454;-62
2022/04/26 11:33:22;;;;;;;16.00;7.80;;;9.90;99.90;;;;;;5026516;28;20534;-62
2022/04/26 11:36:06;;;;;;;11.03;5.27;;;9.70;99.90;;;;;;5022063;28;20453;-62
2022/04/26 11:38:41;;;;;;;4.53;3.90;;;9.60;99.90;;;;;;5023474;28;20430;-63
2022/04/26 11:41:09;;;;;;;5.90;4.10;;;9.40;99.90;;;;;;5003451;28;20525;-63
2022/04/26 11:43:36;;;;;;;8.90;4.03;;;9.00;99.90;;;;;;5004848;28;20486;-65
2022/04/26 11:46:03;;;;;;;3.93;3.50;;;8.80;99.90;;;;;;5025603;28;20434;-63
2022/04/26 11:48:32;;;;;;;4.47;3.97;;;8.40;99.90;;;;;;5027922;28;20441;-63
2022/04/26 11:50:59;;;;;;;5.27;3.77;;;8.10;99.90;;;;;;5026822;28;20472;-62
2022/04/26 11:53:27;;;;;;;5.37;4.40;;;7.90;99.90;;;;;;5024662;28;20454;-61
2022/04/26 11:55:56;;;;;;;7.80;4.13;;;7.70;99.90;;;;;;5022910;28;20431;-61
2022/04/26 11:58:21;;;;;;;5.03;3.93;;;7.50;99.90;;;;;;5022440;28;20426;-59
2022/04/26 12:00:52;;;;;;;5.27;4.40;;;7.30;99.90;;;;;;5010128;28;20434;-60
2022/04/26 12:03:19;;;;;;;5.20;4.20;;;7.20;99.90;;;;;;5029916;28;20355;-61
2022/04/26 12:05:49;;;;;;;7.50;5.47;;;7.10;99.90;;;;;;5026840;28;20477;-61
2022/04/26 12:08:16;;;;;;;7.93;4.80;;;7.00;99.90;;;;;;5026362;28;20446;-60
2022/04/26 12:10:42;;;;;;;6.83;5.13;;;7.00;99.90;;;;;;5028921;28;20881;-61
2022/04/26 12:13:07;;;;;;;6.87;4.87;;;6.90;99.90;;;;;;5028039;28;20442;-62
2022/04/26 12:15:35;;;;;;;6.47;4.10;;;6.90;99.90;;;;;;5024716;28;20423;-64
2022/04/26 12:18:08;;;;;;;6.23;4.20;;;6.80;99.90;;;;;;5020471;28;20189;-60
2022/04/26 12:20:55;;;;;;;9.87;5.80;;;6.80;99.90;;;;;;5028556;28;20426;-61
2022/04/26 12:23:22;;;;;;;5.20;4.63;;;6.70;99.90;;;;;;5005735;28;20458;-61
2022/04/26 12:25:55;;;;;;;10.13;4.73;;;6.70;99.90;;;;;;5008093;28;20460;-63
2022/04/26 12:28:21;;;;;;;7.20;5.93;;;6.80;99.90;;;;;;5027799;28;20927;-61
2022/04/26 12:30:47;;;;;;;6.87;5.50;;;6.80;99.90;;;;;;5028579;28;20454;-61
2022/04/26 12:33:28;;;;;;;8.33;6.13;;;6.80;99.90;;;;;;5020547;28;20262;-60
2022/04/26 12:35:58;;;;;;;11.23;6.50;;;6.90;99.90;;;;;;5017460;28;20171;-60
2022/04/26 12:38:24;;;;;;;15.30;7.33;;;6.90;99.90;;;;;;5031055;28;20516;-61
2022/04/26 12:41:05;;;;;;;7.40;5.93;;;7.00;99.90;;;;;;5024157;28;21016;-60
2022/04/26 12:43:32;;;;;;;8.13;7.17;;;7.10;99.90;;;;;;5015872;28;20218;-57
2022/04/26 12:46:01;;;;;;;8.00;6.70;;;7.30;99.90;;;;;;5002098;28;20464;-59
2022/04/26 12:51:17;;;;;;;10.10;6.50;;;8.50;99.90;;;;;;5021417;28;20469;-60
2022/04/26 12:53:43;;;;;;;9.60;6.23;;;9.30;99.90;;;;;;5020208;28;20545;-60
2022/04/26 12:56:11;;;;;;;7.47;5.53;;;10.00;99.90;;;;;;4999959;28;20524;-61
2022/04/26 12:58:39;;;;;;;5.10;4.53;;;10.60;99.90;;;;;;5020139;28;20433;-60
2022/04/26 13:01:06;;;;;;;6.37;5.40;;;11.10;99.90;;;;;;4998343;28;20943;-61
2022/04/26 13:03:32;;;;;;;7.23;5.03;;;11.40;96.90;;;;;;5014891;28;20446;-62
2022/04/26 13:06:18;;;;;;;7.83;4.73;;;11.40;94.90;;;;;;5018980;28;20728;-60
2022/04/26 13:08:46;;;;;;;4.83;4.17;;;11.20;93.80;;;;;;5017776;28;20460;-61
2022/04/26 13:11:12;;;;;;;5.37;4.30;;;11.20;96.50;;;;;;5000246;28;20668;-61
2022/04/26 13:13:39;;;;;;;4.90;4.10;;;11.20;94.00;;;;;;5021145;28;20465;-61
2022/04/26 13:16:05;;;;;;;4.47;4.03;;;11.00;91.90;;;;;;5015009;28;20419;-60
2022/04/26 13:18:31;;;;;;;5.93;4.30;;;10.90;97.60;;;;;;5016560;28;20643;-60
2022/04/26 13:20:58;;;;;;;6.53;4.80;;;10.80;99.30;;;;;;5022835;28;20538;-60
2022/04/26 13:23:24;;;;;;;4.60;4.17;;;10.90;98.70;;;;;;5024317;28;21071;-60
2022/04/26 13:25:51;;;;;;;4.50;4.10;;;11.10;98.80;;;;;;5015729;28;20438;-61
2022/04/26 13:28:17;;;;;;;6.90;4.67;;;11.60;96.70;;;;;;5026153;28;20521;-60
2022/04/26 13:30:43;;;;;;;7.67;4.30;;;11.90;92.70;;;;;;5023507;28;20612;-61
2022/04/26 13:33:09;;;;;;;5.70;4.40;;;12.20;95.40;;;;;;5021525;28;20214;-59
2022/04/26 13:35:37;;;;;;;4.63;4.00;;;12.40;90.70;;;;;;5021205;28;20613;-61
2022/04/26 13:38:10;;;;;;;8.70;4.50;;;12.70;90.40;;;;;;5017669;28;20389;-58
2022/04/26 13:40:37;;;;;;;6.00;3.90;;;12.70;79.80;;;;;;5022411;28;20431;-59
2022/04/26 13:43:04;;;;;;;6.57;5.70;;;12.30;77.20;;;;;;5003923;28;20486;-61
2022/04/26 13:45:32;;;;;;;9.70;6.77;;;11.80;81.10;;;;;;5020885;28;20418;-59
2022/04/26 13:47:58;;;;;;;8.47;6.47;;;11.30;79.40;;;;;;5002831;28;20438;-60
2022/04/26 13:50:24;;;;;;;10.70;7.00;;;10.90;90.20;;;;;;4987154;28;20990;-58
2022/04/26 13:52:50;;;;;;;13.30;7.63;;;10.60;94.10;;;;;;5009974;28;20497;-59
2022/04/26 13:55:17;;;;;;;10.17;7.40;;;10.30;94.90;;;;;;5018457;28;20458;-59
2022/04/26 13:57:44;;;;;;;9.50;7.50;;;10.00;96.60;;;;;;5009614;28;20631;-60
2022/04/26 14:00:15;;;;;;;12.83;7.07;;;9.80;96.30;;;;;;5011806;28;20556;-60
2022/04/26 14:02:44;;;;;;;10.10;8.00;;;9.70;97.60;;;;;;5006732;28;20549;-61
2022/04/26 14:05:10;;;;;;;11.23;7.40;;;9.60;99.50;;;;;;5014728;28;21236;-61
2022/04/26 14:07:36;;;;;;;9.90;8.00;;;9.60;99.90;;;;;;4996789;28;20427;-60
2022/04/26 14:10:03;;;;;;;9.47;7.00;;;9.90;99.90;;;;;;5010680;28;21011;-61
2022/04/26 14:12:29;;;;;;;8.87;7.00;;;10.20;99.90;;;;;;5011234;28;22645;-59
2022/04/26 14:23:08;;;;;;;10.87;7.00;;;11.60;79.50;;;;;;5014099;28;20450;-58
2022/04/26 14:25:33;;;;;;;11.30;6.83;;;11.60;82.30;;;;;;5012774;28;20430;-59
2022/04/26 14:27:59;;;;;;;9.23;6.80;;;11.50;80.50;;;;;;5015217;28;20187;-59
2022/04/26 14:30:25;;;;;;;9.43;7.00;;;11.40;78.10;;;;;;5011682;28;20183;-59
2022/04/26 14:32:50;;;;;;;10.67;8.30;;;11.20;80.90;;;;;;4991404;28;20652;-59
2022/04/26 14:35:16;;;;;;;12.03;8.50;;;11.10;82.90;;;;;;5010569;28;20246;-58
2022/04/26 14:37:42;;;;;;;10.70;8.70;;;10.90;76.60;;;;;;5006128;28;20184;-59
2022/04/26 14:40:09;;;;;;;9.90;8.13;;;10.80;83.30;;;;;;5009588;28;20370;-60
2022/04/26 14:42:35;;;;;;;14.30;8.60;;;10.60;79.90;;;;;;5008528;28;20204;-59
2022/04/26 14:45:02;;;;;;;9.77;8.07;;;10.60;79.90;;;;;;5006822;28;20469;-59
2022/04/26 14:47:28;;;;;;;10.60;7.30;;;10.60;80.10;;;;;;5009124;28;20450;-60
2022/04/26 14:49:57;;;;;;;8.47;6.90;;;10.80;83.20;;;;;;5008039;28;20447;-60
2022/04/26 14:52:23;;;;;;;8.20;6.90;;;11.10;76.10;;;;;;5009554;28;20215;-60
2022/04/26 14:54:49;;;;;;;9.37;6.87;;;11.20;70.70;;;;;;5008974;28;20446;-60
2022/04/26 14:57:18;;;;;;;7.90;6.80;;;11.30;74.90;;;;;;5016050;28;20469;-61
2022/04/26 14:59:47;;;;;;;12.87;7.90;;;11.20;71.00;;;;;;4993305;28;20257;-60
2022/04/26 15:02:17;;;;;;;10.03;7.60;;;11.10;69.00;;;;;;4995379;28;20442;-60
2022/04/26 15:04:47;;;;;;;11.70;7.97;;;11.00;69.80;;;;;;5008043;28;21267;-60
2022/04/26 15:07:13;;;;;;;11.50;7.50;;;10.90;76.90;;;;;;5016813;28;20438;-61
2022/04/26 15:09:47;;;;;;;11.57;7.30;;;10.80;76.10;;;;;;5013524;28;20495;-61
2022/04/26 15:17:49;;;;;;;9.80;8.30;;;12.10;81.00;;;;;;5015794;28;20449;-60
2022/04/26 15:20:17;;;;;;;10.50;7.73;;;12.90;69.20;;;;;;5014253;28;20477;-61
2022/04/26 15:22:43;;;;;;;11.40;7.20;;;13.50;66.30;;;;;;5000412;28;20516;-61
2022/04/26 15:25:09;;;;;;;9.83;7.60;;;13.70;57.40;;;;;;5015077;28;20555;-60
2022/04/26 15:27:38;;;;;;;14.50;9.80;;;13.30;56.80;;;;;;5019292;28;20573;-61
2022/04/26 15:30:07;;;;;;;9.87;7.97;;;12.90;57.50;;;;;;5017955;28;20601;-60
2022/04/26 15:32:33;;;;;;;11.60;8.53;;;12.30;58.70;;;;;;5001977;28;20804;-61
2022/04/26 15:34:58;;;;;;;13.20;8.80;;;11.90;59.50;;;;;;5018083;28;20441;-61
2022/04/26 15:37:25;;;;;;;10.30;7.90;;;11.50;62.80;;;;;;5021463;28;20809;-61
2022/04/26 15:39:52;;;;;;;8.40;6.30;;;11.20;66.00;;;;;;5009639;28;20325;-60
2022/04/26 15:42:19;;;;;;;6.97;5.70;;;10.90;67.90;;;;;;5014224;28;20533;-60
2022/04/26 15:44:45;;;;;;;7.70;5.50;;;10.60;67.50;;;;;;5001169;28;21099;-60
2022/04/26 15:47:11;;;;;;;7.53;6.20;;;10.30;70.10;;;;;;5020933;28;20430;-60
2022/04/26 15:49:37;;;;;;;7.67;6.23;;;10.20;79.20;;;;;;5002826;28;20969;-60
2022/04/26 15:52:03;;;;;;;10.57;6.93;;;10.00;77.90;;;;;;5016054;28;20268;-62
2022/04/26 15:54:29;;;;;;;9.77;7.53;;;9.90;80.50;;;;;;5018276;28;20184;-62
2022/04/26 15:56:54;;;;;;;10.10;7.33;;;9.80;88.30;;;;;;5017478;28;21286;-61
2022/04/26 15:59:20;;;;;;;10.43;8.00;;;9.80;90.00;;;;;;5015492;28;20218;-60
2022/04/26 16:01:46;;;;;;;10.80;8.00;;;9.80;91.60;;;;;;5017942;28;20551;-60
2022/04/26 16:04:12;;;;;;;8.20;6.83;;;9.80;93.70;;;;;;5015124;28;20208;-60
2022/04/26 16:06:39;;;;;;;9.03;6.50;;;9.90;91.90;;;;;;5023048;28;20882;-60
2022/04/26 16:20:31;;;;;;;10.50;7.23;;;9.70;93.30;;;;;;5013106;28;20437;-63
2022/04/26 16:23:07;;;;;;;9.30;6.90;;;9.70;94.50;;;;;;5001013;28;20912;-60
2022/04/26 16:25:33;;;;;;;11.27;7.83;;;9.70;92.90;;;;;;5016556;28;21161;-60
2022/04/26 16:28:03;;;;;;;13.90;8.40;;;9.80;95.50;;;;;;5003144;28;20514;-61
2022/04/26 16:30:31;;;;;;;9.63;7.73;;;9.80;94.30;;;;;;5015442;28;20429;-61
2022/04/26 16:32:58;;;;;;;9.87;7.67;;;9.90;94.00;;;;;;5001808;28;20817;-61
2022/04/26 16:35:24;;;;;;;10.10;7.30;;;9.90;94.00;;;;;;5019818;28;20529;-61
2022/04/26 16:37:52;;;;;;;8.00;6.77;;;10.00;91.60;;;;;;5000182;28;20677;-61
2022/04/26 16:40:18;;;;;;;10.90;6.93;;;10.00;92.00;;;;;;5019644;28;20533;-61
2022/04/26 16:42:44;;;;;;;9.80;6.83;;;10.00;90.40;;;;;;5019844;28;20509;-61
2022/04/26 16:45:10;;;;;;;8.60;6.70;;;10.00;92.10;;;;;;5003174;28;20249;-60
2022/04/26 16:47:37;;;;;;;8.73;6.70;;;10.00;93.70;;;;;;5025535;28;20195;-61
2022/04/26 16:50:04;;;;;;;7.07;5.67;;;10.10;92.80;;;;;;5020997;28;20430;-61
2022/04/26 16:52:30;;;;;;;10.50;6.47;;;10.10;92.70;;;;;;5026151;28;20538;-61
2022/04/26 16:54:55;;;;;;;9.13;6.37;;;10.10;92.30;;;;;;5021563;28;20466;-61
2022/04/26 16:57:21;;;;;;;10.17;6.40;;;10.10;91.40;;;;;;5023203;28;20176;-60
2022/04/26 16:59:47;;;;;;;8.90;6.50;;;10.10;91.90;;;;;;5001969;28;20180;-60
2022/04/26 17:02:14;;;;;;;7.60;6.60;;;10.00;92.50;;;;;;5021709;28;20258;-61
2022/04/26 17:04:41;;;;;;;12.17;7.20;;;10.00;94.10;;;;;;5021712;28;20175;-60
2022/04/26 17:07:06;;;;;;;7.93;6.80;;;9.90;92.00;;;;;;5021117;28;20561;-61